Airfield :







YOU CAN JOIN US ON...

 
LOGIN :

Register | Disclaimer

   EN    FR    IT 

 









Legend :    VFR   Marginal VFR   IFR   Intensive IFR   Very Intensive IFR
Visi :
Ceiling :
>= 8 km
>= 3000ft
5 to 8 km
1000 to 3000 ft
1500m to 5 km
500 to 1000 ft
800 to 1500m
200 to 500 ft
< 800m
< 200 ft
Symbols :   Thunderstorms  Fog  Heavy snow  Heavy precipitations  Wind > 20 kt






- Airport Elevation : 90 ft
- IATA code : YHU


CYHU - Montréal Saint-Hubert

CURRENT METAR :
  • 141900Z AUTO 03009KT 9SM CLR 25/14 A3012 RMK SLP200 DENSITY ALT 1000FT

EXPIRED METARs :
  • 141800Z AUTO 05007KT 9SM CLR 25/15 A3013 RMK SLP203 DENSITY ALT 1000FT
  • 141700Z AUTO 02010G15KT 9SM CLR 24/15 A3013 RMK SLP206 DENSITY ALT 900FT
  • 141600Z AUTO 02007KT 360V060 9SM CLR 24/16 A3015 RMK SLP211 DENSITY ALT 800FT

TAF TAF CYHU
Valid from the 14 at 18:00 until the 15 at 18:00 UTC


141738Z 1418/1518 02012KT P6SM FEW050
BECMG 1500/1502 03008KT
FM151500 07010KT P6SM FEW060 RMK FCST BASED ON AUTO OBS. NXT FCST BY 150000Z
CZUL FIR / North America



MET'MAP, your aeronautical weather chart ! - Copyright ORBIFLY December 2007 - Disclaimer

ORBIFLY MET'MAP TEAM :

Programming & Development : Alexandra Zaïnal
Concept & original design : Baudouin d'Aumeries
Assistance for programming : Marc-Olivier Méhu
Technical & hardware support : Manuel Goepfert

Contact : metmap@orbifly.com




SOURCES & CREDITS :

   NOAA